sensor_id;sensor_type;location;lat;lon;timestamp;P1;durP1;ratioP1;P2;durP2;ratioP2
75887;SDS011;64562;55.662;37.300;2022-11-02T00:00:10;3.63;;;1.95;;
75887;SDS011;64562;55.662;37.300;2022-11-02T00:02:37;4.03;;;1.58;;
75887;SDS011;64562;55.662;37.300;2022-11-02T00:05:04;2.55;;;1.25;;
75887;SDS011;64562;55.662;37.300;2022-11-02T00:07:30;2.60;;;1.65;;
75887;SDS011;64562;55.662;37.300;2022-11-02T00:09:57;3.05;;;1.42;;
75887;SDS011;64562;55.662;37.300;2022-11-02T00:12:25;4.97;;;1.55;;
75887;SDS011;64562;55.662;37.300;2022-11-02T00:14:52;4.50;;;1.77;;
75887;SDS011;64562;55.662;37.300;2022-11-02T00:17:18;3.88;;;2.10;;
75887;SDS011;64562;55.662;37.300;2022-11-02T00:19:45;2.88;;;1.70;;
75887;SDS011;64562;55.662;37.300;2022-11-02T00:22:12;3.83;;;1.65;;
75887;SDS011;64562;55.662;37.300;2022-11-02T00:24:38;3.28;;;1.73;;
75887;SDS011;64562;55.662;37.300;2022-11-02T00:27:05;4.10;;;1.80;;
75887;SDS011;64562;55.662;37.300;2022-11-02T00:29:34;2.53;;;1.35;;
75887;SDS011;64562;55.662;37.300;2022-11-02T00:32:00;4.47;;;1.70;;
75887;SDS011;64562;55.662;37.300;2022-11-02T00:34:27;2.65;;;1.40;;
75887;SDS011;64562;55.662;37.300;2022-11-02T00:36:53;2.58;;;1.50;;
75887;SDS011;64562;55.662;37.300;2022-11-02T00:39:20;3.10;;;1.67;;
75887;SDS011;64562;55.662;37.300;2022-11-02T00:41:47;3.88;;;2.00;;
75887;SDS011;64562;55.662;37.300;2022-11-02T00:44:13;3.60;;;1.48;;
75887;SDS011;64562;55.662;37.300;2022-11-02T00:46:41;2.72;;;1.67;;
75887;SDS011;64562;55.662;37.300;2022-11-02T00:49:08;3.28;;;1.33;;
75887;SDS011;64562;55.662;37.300;2022-11-02T00:51:34;2.88;;;1.52;;
75887;SDS011;64562;55.662;37.300;2022-11-02T00:54:01;3.15;;;1.58;;
75887;SDS011;64562;55.662;37.300;2022-11-02T00:56:28;3.65;;;1.50;;
75887;SDS011;64562;55.662;37.300;2022-11-02T00:58:54;3.42;;;1.52;;
75887;SDS011;64562;55.662;37.300;2022-11-02T01:01:21;3.25;;;1.90;;
75887;SDS011;64562;55.662;37.300;2022-11-02T01:03:50;4.32;;;1.55;;
75887;SDS011;64562;55.662;37.300;2022-11-02T01:06:16;3.17;;;1.42;;
75887;SDS011;64562;55.662;37.300;2022-11-02T01:08:43;3.00;;;1.55;;
75887;SDS011;64562;55.662;37.300;2022-11-02T01:11:10;2.78;;;1.58;;
75887;SDS011;64562;55.662;37.300;2022-11-02T01:13:37;4.82;;;1.80;;
75887;SDS011;64562;55.662;37.300;2022-11-02T01:16:04;3.28;;;1.40;;
75887;SDS011;64562;55.662;37.300;2022-11-02T01:18:31;3.38;;;1.60;;
75887;SDS011;64562;55.662;37.300;2022-11-02T01:20:59;2.78;;;1.80;;
75887;SDS011;64562;55.662;37.300;2022-11-02T01:23:26;2.80;;;1.50;;
75887;SDS011;64562;55.662;37.300;2022-11-02T01:25:53;2.88;;;1.42;;
75887;SDS011;64562;55.662;37.300;2022-11-02T01:28:20;3.92;;;1.50;;
75887;SDS011;64562;55.662;37.300;2022-11-02T01:30:46;2.42;;;1.80;;
75887;SDS011;64562;55.662;37.300;2022-11-02T01:33:13;2.78;;;1.67;;
75887;SDS011;64562;55.662;37.300;2022-11-02T01:35:40;3.45;;;1.45;;
75887;SDS011;64562;55.662;37.300;2022-11-02T01:38:08;2.70;;;1.40;;
75887;SDS011;64562;55.662;37.300;2022-11-02T01:40:35;3.28;;;1.58;;
75887;SDS011;64562;55.662;37.300;2022-11-02T01:45:43;3.33;;;1.73;;
75887;SDS011;64562;55.662;37.300;2022-11-02T01:48:09;3.22;;;1.70;;
75887;SDS011;64562;55.662;37.300;2022-11-02T01:50:36;4.85;;;1.70;;
75887;SDS011;64562;55.662;37.300;2022-11-02T01:53:03;2.47;;;1.70;;
75887;SDS011;64562;55.662;37.300;2022-11-02T01:55:34;3.20;;;1.63;;
75887;SDS011;64562;55.662;37.300;2022-11-02T01:58:02;3.60;;;1.45;;
75887;SDS011;64562;55.662;37.300;2022-11-02T02:00:30;2.45;;;1.50;;
75887;SDS011;64562;55.662;37.300;2022-11-02T02:02:59;3.63;;;1.55;;
75887;SDS011;64562;55.662;37.300;2022-11-02T02:05:26;3.33;;;1.60;;
75887;SDS011;64562;55.662;37.300;2022-11-02T02:07:53;2.85;;;1.58;;
75887;SDS011;64562;55.662;37.300;2022-11-02T02:10:21;5.25;;;2.05;;
75887;SDS011;64562;55.662;37.300;2022-11-02T02:12:49;3.22;;;1.67;;
75887;SDS011;64562;55.662;37.300;2022-11-02T02:15:15;4.10;;;1.98;;
75887;SDS011;64562;55.662;37.300;2022-11-02T02:17:44;3.00;;;1.38;;
75887;SDS011;64562;55.662;37.300;2022-11-02T02:20:16;3.10;;;1.70;;
75887;SDS011;64562;55.662;37.300;2022-11-02T02:25:40;3.40;;;1.65;;
75887;SDS011;64562;55.662;37.300;2022-11-02T02:28:17;2.65;;;1.60;;
75887;SDS011;64562;55.662;37.300;2022-11-02T02:30:47;2.88;;;1.63;;
75887;SDS011;64562;55.662;37.300;2022-11-02T02:33:17;3.13;;;1.85;;
75887;SDS011;64562;55.662;37.300;2022-11-02T02:35:47;2.33;;;1.33;;
75887;SDS011;64562;55.662;37.300;2022-11-02T02:38:16;2.70;;;1.60;;
75887;SDS011;64562;55.662;37.300;2022-11-02T02:40:46;2.85;;;1.67;;
75887;SDS011;64562;55.662;37.300;2022-11-02T02:45:43;3.95;;;1.52;;
75887;SDS011;64562;55.662;37.300;2022-11-02T02:48:11;3.78;;;1.60;;
75887;SDS011;64562;55.662;37.300;2022-11-02T02:50:40;2.67;;;1.52;;
75887;SDS011;64562;55.662;37.300;2022-11-02T02:53:09;3.85;;;1.55;;
75887;SDS011;64562;55.662;37.300;2022-11-02T02:55:39;4.00;;;1.70;;
75887;SDS011;64562;55.662;37.300;2022-11-02T02:58:06;4.75;;;1.70;;
75887;SDS011;64562;55.662;37.300;2022-11-02T03:00:36;2.47;;;1.48;;
75887;SDS011;64562;55.662;37.300;2022-11-02T03:03:04;3.05;;;1.60;;
75887;SDS011;64562;55.662;37.300;2022-11-02T03:05:31;2.45;;;1.63;;
75887;SDS011;64562;55.662;37.300;2022-11-02T03:08:00;2.25;;;1.35;;
75887;SDS011;64562;55.662;37.300;2022-11-02T03:10:28;3.58;;;1.50;;
75887;SDS011;64562;55.662;37.300;2022-11-02T03:12:59;3.00;;;1.40;;
75887;SDS011;64562;55.662;37.300;2022-11-02T03:15:33;3.10;;;1.50;;
75887;SDS011;64562;55.662;37.300;2022-11-02T03:18:05;3.55;;;1.63;;
75887;SDS011;64562;55.662;37.300;2022-11-02T03:20:38;2.47;;;1.33;;
75887;SDS011;64562;55.662;37.300;2022-11-02T03:23:10;4.00;;;1.60;;
75887;SDS011;64562;55.662;37.300;2022-11-02T03:25:42;3.80;;;1.63;;
75887;SDS011;64562;55.662;37.300;2022-11-02T03:28:14;2.55;;;1.33;;
75887;SDS011;64562;55.662;37.300;2022-11-02T03:30:43;2.55;;;1.40;;
75887;SDS011;64562;55.662;37.300;2022-11-02T03:33:13;5.88;;;1.92;;
75887;SDS011;64562;55.662;37.300;2022-11-02T03:35:45;3.72;;;1.92;;
75887;SDS011;64562;55.662;37.300;2022-11-02T03:38:14;3.20;;;1.30;;
75887;SDS011;64562;55.662;37.300;2022-11-02T03:40:43;3.55;;;1.70;;
75887;SDS011;64562;55.662;37.300;2022-11-02T03:43:10;2.35;;;1.50;;
75887;SDS011;64562;55.662;37.300;2022-11-02T03:45:39;4.15;;;1.80;;
75887;SDS011;64562;55.662;37.300;2022-11-02T03:48:08;2.85;;;1.42;;
75887;SDS011;64562;55.662;37.300;2022-11-02T03:50:37;5.45;;;1.90;;
75887;SDS011;64562;55.662;37.300;2022-11-02T03:53:09;3.28;;;1.65;;
75887;SDS011;64562;55.662;37.300;2022-11-02T03:55:38;3.85;;;1.60;;
75887;SDS011;64562;55.662;37.300;2022-11-02T03:58:07;3.28;;;1.48;;
75887;SDS011;64562;55.662;37.300;2022-11-02T04:00:35;3.50;;;1.50;;
75887;SDS011;64562;55.662;37.300;2022-11-02T04:03:03;2.40;;;1.40;;
75887;SDS011;64562;55.662;37.300;2022-11-02T04:05:32;2.97;;;1.50;;
75887;SDS011;64562;55.662;37.300;2022-11-02T04:07:59;4.32;;;1.70;;
75887;SDS011;64562;55.662;37.300;2022-11-02T04:10:45;7.35;;;1.88;;
75887;SDS011;64562;55.662;37.300;2022-11-02T04:13:30;2.80;;;1.40;;
75887;SDS011;64562;55.662;37.300;2022-11-02T04:16:14;3.40;;;1.52;;
75887;SDS011;64562;55.662;37.300;2022-11-02T04:18:41;3.95;;;1.35;;
75887;SDS011;64562;55.662;37.300;2022-11-02T04:21:25;5.10;;;2.00;;
75887;SDS011;64562;55.662;37.300;2022-11-02T04:23:51;2.67;;;1.42;;
75887;SDS011;64562;55.662;37.300;2022-11-02T04:26:37;5.05;;;1.88;;
75887;SDS011;64562;55.662;37.300;2022-11-02T04:29:04;3.20;;;1.77;;
75887;SDS011;64562;55.662;37.300;2022-11-02T04:31:30;3.38;;;1.77;;
75887;SDS011;64562;55.662;37.300;2022-11-02T04:33:57;5.57;;;1.70;;
75887;SDS011;64562;55.662;37.300;2022-11-02T04:36:24;5.00;;;2.00;;
75887;SDS011;64562;55.662;37.300;2022-11-02T04:38:51;6.50;;;2.10;;
75887;SDS011;64562;55.662;37.300;2022-11-02T04:41:17;4.35;;;2.05;;
75887;SDS011;64562;55.662;37.300;2022-11-02T04:44:03;3.70;;;1.60;;
75887;SDS011;64562;55.662;37.300;2022-11-02T04:46:30;4.88;;;1.98;;
75887;SDS011;64562;55.662;37.300;2022-11-02T04:48:57;3.95;;;1.90;;
75887;SDS011;64562;55.662;37.300;2022-11-02T04:51:25;5.90;;;1.85;;
75887;SDS011;64562;55.662;37.300;2022-11-02T04:53:52;5.10;;;1.90;;
75887;SDS011;64562;55.662;37.300;2022-11-02T04:56:19;5.95;;;4.20;;
75887;SDS011;64562;55.662;37.300;2022-11-02T04:58:47;4.05;;;2.20;;
75887;SDS011;64562;55.662;37.300;2022-11-02T05:01:15;5.38;;;2.30;;
75887;SDS011;64562;55.662;37.300;2022-11-02T05:03:42;5.35;;;2.20;;
75887;SDS011;64562;55.662;37.300;2022-11-02T05:06:09;3.20;;;2.40;;
75887;SDS011;64562;55.662;37.300;2022-11-02T05:08:35;4.22;;;2.00;;
75887;SDS011;64562;55.662;37.300;2022-11-02T05:11:02;4.03;;;1.88;;
75887;SDS011;64562;55.662;37.300;2022-11-02T05:13:29;5.93;;;2.47;;
75887;SDS011;64562;55.662;37.300;2022-11-02T05:15:55;4.47;;;2.05;;
75887;SDS011;64562;55.662;37.300;2022-11-02T05:18:24;5.03;;;1.80;;
75887;SDS011;64562;55.662;37.300;2022-11-02T05:20:51;5.57;;;2.15;;
75887;SDS011;64562;55.662;37.300;2022-11-02T05:23:18;2.47;;;1.77;;
75887;SDS011;64562;55.662;37.300;2022-11-02T05:25:50;5.13;;;2.25;;
75887;SDS011;64562;55.662;37.300;2022-11-02T05:28:17;3.03;;;1.67;;
75887;SDS011;64562;55.662;37.300;2022-11-02T05:30:44;4.13;;;2.00;;
75887;SDS011;64562;55.662;37.300;2022-11-02T05:33:10;3.70;;;1.73;;
75887;SDS011;64562;55.662;37.300;2022-11-02T05:35:38;4.82;;;2.10;;
75887;SDS011;64562;55.662;37.300;2022-11-02T05:38:05;4.65;;;1.88;;
75887;SDS011;64562;55.662;37.300;2022-11-02T05:40:31;3.25;;;1.70;;
75887;SDS011;64562;55.662;37.300;2022-11-02T05:43:01;5.43;;;2.10;;
75887;SDS011;64562;55.662;37.300;2022-11-02T05:45:28;3.08;;;1.75;;
75887;SDS011;64562;55.662;37.300;2022-11-02T05:47:55;3.47;;;1.70;;
75887;SDS011;64562;55.662;37.300;2022-11-02T05:50:21;3.05;;;1.65;;
75887;SDS011;64562;55.662;37.300;2022-11-02T05:52:49;4.38;;;1.60;;
75887;SDS011;64562;55.662;37.300;2022-11-02T05:55:17;3.30;;;1.60;;
75887;SDS011;64562;55.662;37.300;2022-11-02T05:57:45;3.60;;;1.70;;
75887;SDS011;64562;55.662;37.300;2022-11-02T06:00:15;3.75;;;1.40;;
75887;SDS011;64562;55.662;37.300;2022-11-02T06:02:42;2.90;;;1.58;;
75887;SDS011;64562;55.662;37.300;2022-11-02T06:05:08;3.28;;;1.65;;
75887;SDS011;64562;55.662;37.300;2022-11-02T06:07:35;3.13;;;1.52;;
75887;SDS011;64562;55.662;37.300;2022-11-02T06:10:03;3.53;;;1.80;;
75887;SDS011;64562;55.662;37.300;2022-11-02T06:12:30;3.35;;;1.73;;
75887;SDS011;64562;55.662;37.300;2022-11-02T06:14:57;2.42;;;1.50;;
75887;SDS011;64562;55.662;37.300;2022-11-02T06:17:23;3.67;;;1.70;;
75887;SDS011;64562;55.662;37.300;2022-11-02T06:19:50;2.60;;;1.40;;
75887;SDS011;64562;55.662;37.300;2022-11-02T06:22:16;4.03;;;1.38;;
75887;SDS011;64562;55.662;37.300;2022-11-02T06:24:43;3.67;;;1.70;;
75887;SDS011;64562;55.662;37.300;2022-11-02T06:27:11;4.07;;;1.58;;
75887;SDS011;64562;55.662;37.300;2022-11-02T06:29:37;6.25;;;1.77;;
75887;SDS011;64562;55.662;37.300;2022-11-02T06:32:04;3.58;;;1.75;;
75887;SDS011;64562;55.662;37.300;2022-11-02T06:34:31;2.80;;;1.48;;
75887;SDS011;64562;55.662;37.300;2022-11-02T06:36:57;3.55;;;1.67;;
75887;SDS011;64562;55.662;37.300;2022-11-02T06:39:24;2.72;;;1.40;;
75887;SDS011;64562;55.662;37.300;2022-11-02T06:41:50;2.72;;;1.60;;
75887;SDS011;64562;55.662;37.300;2022-11-02T06:44:18;3.42;;;1.40;;
75887;SDS011;64562;55.662;37.300;2022-11-02T06:46:45;3.03;;;1.40;;
75887;SDS011;64562;55.662;37.300;2022-11-02T06:49:12;2.55;;;1.60;;
75887;SDS011;64562;55.662;37.300;2022-11-02T06:51:38;3.75;;;1.60;;
75887;SDS011;64562;55.662;37.300;2022-11-02T06:54:05;3.70;;;1.70;;
75887;SDS011;64562;55.662;37.300;2022-11-02T06:56:32;3.60;;;1.70;;
75887;SDS011;64562;55.662;37.300;2022-11-02T06:58:58;3.35;;;1.60;;
75887;SDS011;64562;55.662;37.300;2022-11-02T07:01:26;3.80;;;1.52;;
75887;SDS011;64562;55.662;37.300;2022-11-02T07:03:53;2.63;;;1.38;;
75887;SDS011;64562;55.662;37.300;2022-11-02T07:06:20;3.47;;;1.58;;
75887;SDS011;64562;55.662;37.300;2022-11-02T07:08:46;2.88;;;1.30;;
75887;SDS011;64562;55.662;37.300;2022-11-02T07:11:13;3.67;;;1.40;;
75887;SDS011;64562;55.662;37.300;2022-11-02T07:13:40;3.22;;;1.60;;
75887;SDS011;64562;55.662;37.300;2022-11-02T07:16:07;2.75;;;1.30;;
75887;SDS011;64562;55.662;37.300;2022-11-02T07:18:35;2.65;;;1.48;;
75887;SDS011;64562;55.662;37.300;2022-11-02T07:21:02;2.00;;;1.33;;
75887;SDS011;64562;55.662;37.300;2022-11-02T07:23:28;2.60;;;1.40;;
75887;SDS011;64562;55.662;37.300;2022-11-02T07:25:55;2.90;;;1.20;;
75887;SDS011;64562;55.662;37.300;2022-11-02T07:28:22;3.03;;;1.75;;
75887;SDS011;64562;55.662;37.300;2022-11-02T07:30:48;3.65;;;1.30;;
75887;SDS011;64562;55.662;37.300;2022-11-02T07:33:15;3.53;;;1.38;;
75887;SDS011;64562;55.662;37.300;2022-11-02T07:35:43;3.35;;;1.33;;
75887;SDS011;64562;55.662;37.300;2022-11-02T07:38:09;3.40;;;1.45;;
75887;SDS011;64562;55.662;37.300;2022-11-02T07:40:36;2.47;;;1.42;;
75887;SDS011;64562;55.662;37.300;2022-11-02T07:43:03;3.70;;;1.55;;
75887;SDS011;64562;55.662;37.300;2022-11-02T07:45:30;3.42;;;1.45;;
75887;SDS011;64562;55.662;37.300;2022-11-02T07:47:57;3.50;;;1.60;;
75887;SDS011;64562;55.662;37.300;2022-11-02T07:50:24;5.10;;;1.70;;
75887;SDS011;64562;55.662;37.300;2022-11-02T07:52:53;4.03;;;1.67;;
75887;SDS011;64562;55.662;37.300;2022-11-02T07:55:21;3.10;;;1.50;;
75887;SDS011;64562;55.662;37.300;2022-11-02T07:57:54;4.50;;;1.60;;
75887;SDS011;64562;55.662;37.300;2022-11-02T08:00:20;5.15;;;1.55;;
75887;SDS011;64562;55.662;37.300;2022-11-02T08:02:47;2.97;;;1.60;;
75887;SDS011;64562;55.662;37.300;2022-11-02T08:05:14;4.20;;;1.70;;
75887;SDS011;64562;55.662;37.300;2022-11-02T08:07:41;3.63;;;1.70;;
75887;SDS011;64562;55.662;37.300;2022-11-02T08:10:09;3.83;;;1.90;;
75887;SDS011;64562;55.662;37.300;2022-11-02T08:12:35;4.50;;;1.80;;
75887;SDS011;64562;55.662;37.300;2022-11-02T08:15:02;2.78;;;1.48;;
75887;SDS011;64562;55.662;37.300;2022-11-02T08:17:30;3.35;;;1.50;;
75887;SDS011;64562;55.662;37.300;2022-11-02T08:19:57;4.25;;;1.73;;
75887;SDS011;64562;55.662;37.300;2022-11-02T08:22:24;4.72;;;1.77;;
75887;SDS011;64562;55.662;37.300;2022-11-02T08:24:50;3.22;;;1.63;;
75887;SDS011;64562;55.662;37.300;2022-11-02T08:27:18;4.25;;;1.95;;
75887;SDS011;64562;55.662;37.300;2022-11-02T08:29:45;5.25;;;1.90;;
75887;SDS011;64562;55.662;37.300;2022-11-02T08:32:11;4.47;;;2.17;;
75887;SDS011;64562;55.662;37.300;2022-11-02T08:34:38;3.22;;;1.95;;
75887;SDS011;64562;55.662;37.300;2022-11-02T08:37:05;9.18;;;1.77;;
75887;SDS011;64562;55.662;37.300;2022-11-02T08:39:32;2.67;;;1.65;;
75887;SDS011;64562;55.662;37.300;2022-11-02T08:41:59;4.47;;;2.00;;
75887;SDS011;64562;55.662;37.300;2022-11-02T08:44:27;5.47;;;2.20;;
75887;SDS011;64562;55.662;37.300;2022-11-02T08:46:53;3.65;;;2.05;;
75887;SDS011;64562;55.662;37.300;2022-11-02T08:49:20;5.47;;;2.45;;
75887;SDS011;64562;55.662;37.300;2022-11-02T08:51:47;6.30;;;2.13;;
75887;SDS011;64562;55.662;37.300;2022-11-02T08:54:13;3.58;;;2.35;;
75887;SDS011;64562;55.662;37.300;2022-11-02T08:56:40;3.78;;;2.00;;
75887;SDS011;64562;55.662;37.300;2022-11-02T08:59:07;6.38;;;2.20;;
75887;SDS011;64562;55.662;37.300;2022-11-02T09:01:35;5.50;;;2.75;;
75887;SDS011;64562;55.662;37.300;2022-11-02T09:04:03;6.15;;;2.35;;
75887;SDS011;64562;55.662;37.300;2022-11-02T09:06:29;4.90;;;2.03;;
75887;SDS011;64562;55.662;37.300;2022-11-02T09:08:56;5.00;;;2.35;;
75887;SDS011;64562;55.662;37.300;2022-11-02T09:11:23;5.00;;;2.85;;
75887;SDS011;64562;55.662;37.300;2022-11-02T09:13:49;4.07;;;2.55;;
75887;SDS011;64562;55.662;37.300;2022-11-02T09:16:16;3.97;;;2.40;;
75887;SDS011;64562;55.662;37.300;2022-11-02T09:18:44;5.43;;;2.60;;
75887;SDS011;64562;55.662;37.300;2022-11-02T09:21:10;5.88;;;2.60;;
75887;SDS011;64562;55.662;37.300;2022-11-02T09:23:37;5.30;;;2.72;;
75887;SDS011;64562;55.662;37.300;2022-11-02T09:26:04;8.13;;;2.90;;
75887;SDS011;64562;55.662;37.300;2022-11-02T09:28:30;4.88;;;2.50;;
75887;SDS011;64562;55.662;37.300;2022-11-02T09:30:57;6.70;;;2.72;;
75887;SDS011;64562;55.662;37.300;2022-11-02T09:33:23;6.00;;;2.90;;
75887;SDS011;64562;55.662;37.300;2022-11-02T09:35:52;5.22;;;2.88;;
75887;SDS011;64562;55.662;37.300;2022-11-02T09:38:19;5.22;;;2.85;;
75887;SDS011;64562;55.662;37.300;2022-11-02T09:40:48;6.07;;;3.28;;
75887;SDS011;64562;55.662;37.300;2022-11-02T09:43:18;5.88;;;2.90;;
75887;SDS011;64562;55.662;37.300;2022-11-02T09:45:50;5.63;;;3.10;;
75887;SDS011;64562;55.662;37.300;2022-11-02T09:48:19;3.78;;;2.53;;
75887;SDS011;64562;55.662;37.300;2022-11-02T09:50:49;5.10;;;3.13;;
75887;SDS011;64562;55.662;37.300;2022-11-02T09:53:19;5.15;;;2.58;;
75887;SDS011;64562;55.662;37.300;2022-11-02T09:55:48;6.10;;;3.20;;
75887;SDS011;64562;55.662;37.300;2022-11-02T09:58:16;6.10;;;2.55;;
75887;SDS011;64562;55.662;37.300;2022-11-02T10:00:44;5.70;;;3.33;;
75887;SDS011;64562;55.662;37.300;2022-11-02T10:03:16;5.40;;;3.17;;
75887;SDS011;64562;55.662;37.300;2022-11-02T10:05:46;5.38;;;2.70;;
75887;SDS011;64562;55.662;37.300;2022-11-02T10:08:23;3.67;;;2.70;;
75887;SDS011;64562;55.662;37.300;2022-11-02T10:10:57;5.63;;;2.63;;
75887;SDS011;64562;55.662;37.300;2022-11-02T10:13:29;4.22;;;2.65;;
75887;SDS011;64562;55.662;37.300;2022-11-02T10:16:00;6.35;;;2.75;;
75887;SDS011;64562;55.662;37.300;2022-11-02T10:18:29;5.28;;;3.10;;
75887;SDS011;64562;55.662;37.300;2022-11-02T10:20:56;5.60;;;2.72;;
75887;SDS011;64562;55.662;37.300;2022-11-02T10:23:26;5.93;;;2.83;;
75887;SDS011;64562;55.662;37.300;2022-11-02T10:25:55;5.40;;;2.60;;
75887;SDS011;64562;55.662;37.300;2022-11-02T10:28:23;6.53;;;2.53;;
75887;SDS011;64562;55.662;37.300;2022-11-02T10:30:51;6.00;;;2.42;;
75887;SDS011;64562;55.662;37.300;2022-11-02T10:33:19;4.18;;;2.67;;
75887;SDS011;64562;55.662;37.300;2022-11-02T10:35:47;5.53;;;2.40;;
75887;SDS011;64562;55.662;37.300;2022-11-02T10:38:20;5.50;;;2.50;;
75887;SDS011;64562;55.662;37.300;2022-11-02T10:40:57;4.53;;;2.60;;
75887;SDS011;64562;55.662;37.300;2022-11-02T10:43:29;4.18;;;2.20;;
75887;SDS011;64562;55.662;37.300;2022-11-02T10:46:03;3.97;;;2.30;;
75887;SDS011;64562;55.662;37.300;2022-11-02T10:48:36;5.32;;;2.33;;
75887;SDS011;64562;55.662;37.300;2022-11-02T10:51:08;8.05;;;2.30;;
75887;SDS011;64562;55.662;37.300;2022-11-02T10:53:38;5.90;;;2.72;;
75887;SDS011;64562;55.662;37.300;2022-11-02T10:56:11;3.72;;;2.75;;
75887;SDS011;64562;55.662;37.300;2022-11-02T10:58:41;4.97;;;2.50;;
75887;SDS011;64562;55.662;37.300;2022-11-02T11:01:10;3.92;;;2.67;;
75887;SDS011;64562;55.662;37.300;2022-11-02T11:03:51;4.90;;;2.78;;
75887;SDS011;64562;55.662;37.300;2022-11-02T11:06:18;3.30;;;2.10;;
75887;SDS011;64562;55.662;37.300;2022-11-02T11:08:45;4.65;;;2.40;;
75887;SDS011;64562;55.662;37.300;2022-11-02T11:11:16;5.00;;;2.70;;
75887;SDS011;64562;55.662;37.300;2022-11-02T11:13:44;5.80;;;2.70;;
75887;SDS011;64562;55.662;37.300;2022-11-02T11:16:12;3.88;;;2.42;;
75887;SDS011;64562;55.662;37.300;2022-11-02T11:18:38;6.50;;;2.85;;
75887;SDS011;64562;55.662;37.300;2022-11-02T11:21:05;4.93;;;2.47;;
75887;SDS011;64562;55.662;37.300;2022-11-02T11:23:32;4.97;;;2.80;;
75887;SDS011;64562;55.662;37.300;2022-11-02T11:25:59;5.32;;;2.45;;
75887;SDS011;64562;55.662;37.300;2022-11-02T11:28:29;4.90;;;2.83;;
75887;SDS011;64562;55.662;37.300;2022-11-02T11:31:03;5.50;;;2.50;;
75887;SDS011;64562;55.662;37.300;2022-11-02T11:33:31;4.45;;;2.67;;
75887;SDS011;64562;55.662;37.300;2022-11-02T11:35:58;4.45;;;2.30;;
75887;SDS011;64562;55.662;37.300;2022-11-02T11:38:25;4.93;;;2.15;;
75887;SDS011;64562;55.662;37.300;2022-11-02T11:40:52;4.28;;;2.20;;
75887;SDS011;64562;55.662;37.300;2022-11-02T11:43:20;3.63;;;2.22;;
75887;SDS011;64562;55.662;37.300;2022-11-02T11:45:56;3.25;;;2.50;;
75887;SDS011;64562;55.662;37.300;2022-11-02T11:48:26;2.45;;;1.75;;
75887;SDS011;64562;55.662;37.300;2022-11-02T11:50:56;4.38;;;2.40;;
75887;SDS011;64562;55.662;37.300;2022-11-02T11:53:23;4.72;;;2.47;;
75887;SDS011;64562;55.662;37.300;2022-11-02T11:55:51;3.65;;;2.10;;
75887;SDS011;64562;55.662;37.300;2022-11-02T11:58:19;2.65;;;2.03;;
75887;SDS011;64562;55.662;37.300;2022-11-02T12:01:01;3.08;;;2.13;;
75887;SDS011;64562;55.662;37.300;2022-11-02T12:03:28;3.85;;;2.20;;
75887;SDS011;64562;55.662;37.300;2022-11-02T12:05:56;3.95;;;2.03;;
75887;SDS011;64562;55.662;37.300;2022-11-02T12:08:29;3.72;;;2.10;;
75887;SDS011;64562;55.662;37.300;2022-11-02T12:11:03;3.17;;;1.95;;
75887;SDS011;64562;55.662;37.300;2022-11-02T12:13:41;3.30;;;1.85;;
75887;SDS011;64562;55.662;37.300;2022-11-02T12:16:13;3.42;;;2.00;;
75887;SDS011;64562;55.662;37.300;2022-11-02T12:18:47;3.97;;;2.05;;
75887;SDS011;64562;55.662;37.300;2022-11-02T12:21:27;3.65;;;2.08;;
75887;SDS011;64562;55.662;37.300;2022-11-02T12:24:05;3.03;;;1.83;;
75887;SDS011;64562;55.662;37.300;2022-11-02T12:26:39;2.78;;;1.80;;
75887;SDS011;64562;55.662;37.300;2022-11-02T12:29:11;4.90;;;2.08;;
75887;SDS011;64562;55.662;37.300;2022-11-02T12:31:44;2.97;;;1.98;;
75887;SDS011;64562;55.662;37.300;2022-11-02T12:34:19;4.10;;;1.80;;
75887;SDS011;64562;55.662;37.300;2022-11-02T12:39:15;4.68;;;1.83;;
75887;SDS011;64562;55.662;37.300;2022-11-02T12:41:54;4.47;;;1.90;;
75887;SDS011;64562;55.662;37.300;2022-11-02T12:44:36;3.72;;;1.70;;
75887;SDS011;64562;55.662;37.300;2022-11-02T12:47:07;4.10;;;1.88;;
75887;SDS011;64562;55.662;37.300;2022-11-02T12:49:40;2.80;;;1.83;;
75887;SDS011;64562;55.662;37.300;2022-11-02T12:52:13;3.35;;;2.00;;
75887;SDS011;64562;55.662;37.300;2022-11-02T12:54:42;4.07;;;1.80;;
75887;SDS011;64562;55.662;37.300;2022-11-02T12:57:11;3.15;;;2.10;;
75887;SDS011;64562;55.662;37.300;2022-11-02T12:59:39;4.07;;;2.05;;
75887;SDS011;64562;55.662;37.300;2022-11-02T13:02:11;2.95;;;1.80;;
75887;SDS011;64562;55.662;37.300;2022-11-02T13:04:39;3.83;;;1.85;;
75887;SDS011;64562;55.662;37.300;2022-11-02T13:07:10;5.90;;;1.98;;
75887;SDS011;64562;55.662;37.300;2022-11-02T13:09:39;3.70;;;2.00;;
75887;SDS011;64562;55.662;37.300;2022-11-02T13:12:06;4.53;;;2.03;;
75887;SDS011;64562;55.662;37.300;2022-11-02T13:17:04;3.15;;;1.63;;
75887;SDS011;64562;55.662;37.300;2022-11-02T13:19:33;5.70;;;2.10;;
75887;SDS011;64562;55.662;37.300;2022-11-02T13:22:01;3.15;;;1.65;;
75887;SDS011;64562;55.662;37.300;2022-11-02T13:24:32;4.95;;;1.83;;
75887;SDS011;64562;55.662;37.300;2022-11-02T13:27:00;3.03;;;1.90;;
75887;SDS011;64562;55.662;37.300;2022-11-02T13:29:29;6.63;;;2.17;;
75887;SDS011;64562;55.662;37.300;2022-11-02T13:32:01;4.10;;;1.67;;
75887;SDS011;64562;55.662;37.300;2022-11-02T13:34:30;4.80;;;1.85;;
75887;SDS011;64562;55.662;37.300;2022-11-02T13:36:58;4.25;;;2.00;;
75887;SDS011;64562;55.662;37.300;2022-11-02T13:39:30;2.90;;;2.03;;
75887;SDS011;64562;55.662;37.300;2022-11-02T13:42:03;5.47;;;2.55;;
75887;SDS011;64562;55.662;37.300;2022-11-02T13:44:36;4.88;;;2.20;;
75887;SDS011;64562;55.662;37.300;2022-11-02T13:47:09;4.95;;;2.10;;
75887;SDS011;64562;55.662;37.300;2022-11-02T13:49:39;4.55;;;2.15;;
75887;SDS011;64562;55.662;37.300;2022-11-02T13:52:10;3.88;;;2.30;;
75887;SDS011;64562;55.662;37.300;2022-11-02T13:54:37;3.75;;;2.00;;
75887;SDS011;64562;55.662;37.300;2022-11-02T13:57:13;3.53;;;2.30;;
75887;SDS011;64562;55.662;37.300;2022-11-02T13:59:45;4.45;;;2.22;;
75887;SDS011;64562;55.662;37.300;2022-11-02T14:02:13;6.18;;;2.38;;
75887;SDS011;64562;55.662;37.300;2022-11-02T14:04:42;4.43;;;2.42;;
75887;SDS011;64562;55.662;37.300;2022-11-02T14:07:18;3.40;;;2.10;;
75887;SDS011;64562;55.662;37.300;2022-11-02T14:09:45;4.28;;;2.40;;
75887;SDS011;64562;55.662;37.300;2022-11-02T14:12:24;3.97;;;2.38;;
75887;SDS011;64562;55.662;37.300;2022-11-02T14:25:50;7.15;;;2.63;;
75887;SDS011;64562;55.662;37.300;2022-11-02T14:33:48;3.72;;;2.25;;
75887;SDS011;64562;55.662;37.300;2022-11-02T14:36:23;4.57;;;2.40;;
75887;SDS011;64562;55.662;37.300;2022-11-02T14:39:00;3.60;;;1.80;;
75887;SDS011;64562;55.662;37.300;2022-11-02T14:41:40;5.18;;;2.75;;
75887;SDS011;64562;55.662;37.300;2022-11-02T14:44:15;3.67;;;2.30;;
75887;SDS011;64562;55.662;37.300;2022-11-02T14:46:49;4.85;;;2.70;;
75887;SDS011;64562;55.662;37.300;2022-11-02T14:49:21;4.10;;;2.30;;
75887;SDS011;64562;55.662;37.300;2022-11-02T14:51:59;3.95;;;2.28;;
75887;SDS011;64562;55.662;37.300;2022-11-02T14:54:26;5.90;;;2.47;;
75887;SDS011;64562;55.662;37.300;2022-11-02T14:56:56;4.55;;;2.55;;
75887;SDS011;64562;55.662;37.300;2022-11-02T14:59:24;4.32;;;2.35;;
75887;SDS011;64562;55.662;37.300;2022-11-02T15:01:53;6.03;;;3.17;;
75887;SDS011;64562;55.662;37.300;2022-11-02T15:04:21;5.18;;;2.42;;
75887;SDS011;64562;55.662;37.300;2022-11-02T15:06:49;4.93;;;2.50;;
75887;SDS011;64562;55.662;37.300;2022-11-02T15:12:00;4.18;;;2.38;;
75887;SDS011;64562;55.662;37.300;2022-11-02T15:14:53;3.58;;;2.45;;